Time;durP1;ratioP1;P1;durP2;ratioP2;P2;SDS_P1;SDS_P2;PMS_P1;PMS_P2;Temp;Humidity;BMP_temperature;BMP_pressure;BME280_temperature;BME280_humidity;BME280_pressure;Samples;Min_cycle;Max_cycle;Signal;HPM_P1;HPM_P2
2023/11/12 00:01:21;;;;;;;10.87;7.00;;;;;;;;;;5093464;28;20420;-82
2023/11/12 00:03:49;;;;;;;12.30;7.53;;;;;;;;;;5093388;28;20405;-79
2023/11/12 00:06:14;;;;;;;10.67;7.27;;;;;;;;;;5093366;28;20421;-79
2023/11/12 00:08:40;;;;;;;13.27;8.07;;;;;;;;;;5093280;28;20455;-82
2023/11/12 00:11:07;;;;;;;10.37;7.17;;;;;;;;;;5093345;28;20417;-81
2023/11/12 00:13:33;;;;;;;10.13;7.57;;;;;;;;;;5093309;28;20411;-81
2023/11/12 00:15:59;;;;;;;8.17;6.30;;;;;;;;;;5092904;28;20436;-80
2023/11/12 00:18:25;;;;;;;10.83;6.90;;;;;;;;;;5091934;28;20957;-78
2023/11/12 00:20:51;;;;;;;11.20;7.33;;;;;;;;;;5093435;28;20409;-85
2023/11/12 00:23:18;;;;;;;9.57;6.73;;;;;;;;;;5093137;28;20445;-78
2023/11/12 00:25:44;;;;;;;13.83;7.20;;;;;;;;;;5093062;28;20417;-83
2023/11/12 00:28:10;;;;;;;10.50;7.10;;;;;;;;;;5093118;28;20511;-79
2023/11/12 00:30:39;;;;;;;11.10;7.80;;;;;;;;;;5092665;28;20568;-79
2023/11/12 00:33:05;;;;;;;12.33;7.83;;;;;;;;;;5093435;28;20417;-81
2023/11/12 00:35:30;;;;;;;9.00;6.13;;;;;;;;;;5093073;28;20960;-79
2023/11/12 00:37:56;;;;;;;12.80;8.37;;;;;;;;;;5096397;28;20429;-82
2023/11/12 00:40:22;;;;;;;10.60;6.90;;;;;;;;;;5093038;28;20417;-80
2023/11/12 00:42:48;;;;;;;8.30;6.13;;;;;;;;;;5092999;28;20463;-79
2023/11/12 00:45:14;;;;;;;12.63;7.40;;;;;;;;;;5092633;28;20415;-86
2023/11/12 00:47:40;;;;;;;11.23;6.90;;;;;;;;;;5093047;28;20410;-80
2023/11/12 00:50:08;;;;;;;10.00;6.87;;;;;;;;;;5093077;28;20551;-88
2023/11/12 00:52:34;;;;;;;11.93;6.87;;;;;;;;;;5093109;28;20508;-80
2023/11/12 00:55:00;;;;;;;9.93;6.30;;;;;;;;;;5092841;28;20425;-81
2023/11/12 00:57:27;;;;;;;9.47;6.67;;;;;;;;;;5092895;28;20411;-82
2023/11/12 00:59:52;;;;;;;10.20;6.40;;;;;;;;;;5092991;28;20407;-81
2023/11/12 01:02:18;;;;;;;12.00;6.63;;;;;;;;;;5095021;28;20435;-80
2023/11/12 01:04:46;;;;;;;10.10;6.40;;;;;;;;;;5097408;28;20773;-82
2023/11/12 01:07:12;;;;;;;10.47;6.23;;;;;;;;;;5104663;28;20861;-82
2023/11/12 01:09:37;;;;;;;10.47;6.43;;;;;;;;;;5107104;28;20524;-81
2023/11/12 01:12:04;;;;;;;10.70;6.60;;;;;;;;;;5102141;28;20476;-82
2023/11/12 01:14:29;;;;;;;9.57;7.30;;;;;;;;;;5106687;28;21127;-82
2023/11/12 01:16:56;;;;;;;12.40;8.17;;;;;;;;;;5104734;28;20522;-82
2023/11/12 01:19:22;;;;;;;10.50;6.40;;;;;;;;;;5107991;28;20424;-81
2023/11/12 01:21:48;;;;;;;11.13;7.40;;;;;;;;;;5111776;28;20463;-81
2023/11/12 01:24:14;;;;;;;8.97;6.10;;;;;;;;;;5112717;28;20889;-81
2023/11/12 01:26:40;;;;;;;11.53;6.40;;;;;;;;;;5108015;27;20409;-81
2023/11/12 01:29:06;;;;;;;13.33;6.37;;;;;;;;;;5102915;28;21015;-82
2023/11/12 01:31:32;;;;;;;9.30;5.53;;;;;;;;;;5106802;28;20456;-81
2023/11/12 01:33:58;;;;;;;11.20;6.03;;;;;;;;;;5109123;28;20939;-81
2023/11/12 01:36:24;;;;;;;8.60;5.90;;;;;;;;;;5107419;28;20978;-82
2023/11/12 01:38:50;;;;;;;10.90;6.80;;;;;;;;;;5104022;27;20408;-82
2023/11/12 01:41:19;;;;;;;13.10;6.63;;;;;;;;;;5105237;28;20417;-82
2023/11/12 01:43:44;;;;;;;11.40;6.73;;;;;;;;;;5109600;28;20427;-83
2023/11/12 01:46:11;;;;;;;15.70;7.33;;;;;;;;;;5108213;28;21010;-82
2023/11/12 01:48:37;;;;;;;10.37;6.03;;;;;;;;;;5102487;28;20416;-82
2023/11/12 01:51:04;;;;;;;9.47;6.50;;;;;;;;;;5102534;28;20915;-81
2023/11/12 01:53:30;;;;;;;11.00;6.80;;;;;;;;;;5106922;28;20409;-81
2023/11/12 01:55:57;;;;;;;9.80;6.07;;;;;;;;;;5106765;28;20474;-79
2023/11/12 01:58:23;;;;;;;12.07;6.77;;;;;;;;;;5099761;28;20451;-81
2023/11/12 02:00:49;;;;;;;10.30;6.07;;;;;;;;;;5111992;28;20466;-80
2023/11/12 02:03:17;;;;;;;12.67;6.37;;;;;;;;;;5103240;28;20397;-80
2023/11/12 02:05:46;;;;;;;9.93;5.87;;;;;;;;;;5104490;28;20416;-80
2023/11/12 02:08:12;;;;;;;11.03;6.33;;;;;;;;;;5104966;28;20739;-82
2023/11/12 02:10:38;;;;;;;10.47;5.70;;;;;;;;;;5106276;28;20798;-82
2023/11/12 02:13:05;;;;;;;10.37;6.00;;;;;;;;;;5103360;28;20416;-82
2023/11/12 02:15:31;;;;;;;11.30;5.90;;;;;;;;;;5103849;28;20402;-82
2023/11/12 02:18:00;;;;;;;11.27;6.17;;;;;;;;;;5106018;28;20421;-81
2023/11/12 02:20:27;;;;;;;11.57;6.57;;;;;;;;;;5103080;28;20934;-82
2023/11/12 02:22:53;;;;;;;12.57;7.80;;;;;;;;;;5104701;28;20410;-83
2023/11/12 02:25:19;;;;;;;14.13;7.77;;;;;;;;;;5105943;28;20413;-79
2023/11/12 02:27:44;;;;;;;13.10;7.00;;;;;;;;;;5104431;28;20559;-81
2023/11/12 02:30:11;;;;;;;12.40;7.80;;;;;;;;;;5104122;28;20476;-81
2023/11/12 02:32:37;;;;;;;10.97;6.53;;;;;;;;;;5105932;28;20446;-80
2023/11/12 02:35:03;;;;;;;11.07;6.40;;;;;;;;;;5104004;28;20979;-79
2023/11/12 02:37:30;;;;;;;12.37;7.00;;;;;;;;;;5104797;28;20398;-82
2023/11/12 02:39:56;;;;;;;12.50;7.03;;;;;;;;;;5105723;28;20914;-81
2023/11/12 02:42:22;;;;;;;17.00;7.63;;;;;;;;;;5103582;28;20414;-81
2023/11/12 02:44:49;;;;;;;12.83;8.40;;;;;;;;;;5106858;28;20419;-81
2023/11/12 02:47:14;;;;;;;14.70;8.00;;;;;;;;;;5107886;28;20401;-81
2023/11/12 02:49:49;;;;;;;14.83;8.37;;;;;;;;;;5102155;28;20526;-81
2023/11/12 02:52:14;;;;;;;14.53;8.47;;;;;;;;;;5103812;28;20404;-81
2023/11/12 02:54:40;;;;;;;13.90;6.50;;;;;;;;;;5105345;28;20413;-80
2023/11/12 02:57:07;;;;;;;16.20;7.80;;;;;;;;;;5104051;28;20636;-80
2023/11/12 02:59:33;;;;;;;13.43;6.87;;;;;;;;;;5103476;28;20411;-81
2023/11/12 03:02:02;;;;;;;15.07;7.67;;;;;;;;;;5105337;28;20966;-81
2023/11/12 03:04:31;;;;;;;17.40;7.90;;;;;;;;;;5104089;28;20221;-82
2023/11/12 03:06:57;;;;;;;15.70;8.47;;;;;;;;;;5103110;28;20414;-80
2023/11/12 03:09:24;;;;;;;16.17;9.70;;;;;;;;;;5105076;28;20480;-79
2023/11/12 03:11:50;;;;;;;19.40;9.50;;;;;;;;;;5103095;28;20413;-83
2023/11/12 03:14:18;;;;;;;21.80;10.77;;;;;;;;;;5102652;28;20415;-83
2023/11/12 03:16:44;;;;;;;18.30;8.83;;;;;;;;;;5104797;28;20808;-80
2023/11/12 03:19:11;;;;;;;15.23;8.53;;;;;;;;;;5102939;28;20512;-81
2023/11/12 03:21:36;;;;;;;16.63;8.17;;;;;;;;;;5103015;28;20406;-83
2023/11/12 03:24:03;;;;;;;18.23;8.63;;;;;;;;;;5103665;28;20409;-81
2023/11/12 03:26:29;;;;;;;28.53;8.67;;;;;;;;;;5103676;28;20441;-83
2023/11/12 03:28:55;;;;;;;21.23;10.23;;;;;;;;;;5102604;28;20542;-80
2023/11/12 03:31:20;;;;;;;20.87;10.07;;;;;;;;;;5104562;28;20456;-80
2023/11/12 03:33:46;;;;;;;19.93;9.70;;;;;;;;;;5112259;28;20413;-83
2023/11/12 03:36:15;;;;;;;17.63;8.23;;;;;;;;;;5114339;28;20534;-83
2023/11/12 03:38:42;;;;;;;20.87;10.27;;;;;;;;;;5114195;28;20912;-80
2023/11/12 03:41:11;;;;;;;24.60;10.03;;;;;;;;;;5113099;28;20814;-80
2023/11/12 03:43:36;;;;;;;21.63;10.17;;;;;;;;;;5113938;28;20789;-83
2023/11/12 03:46:02;;;;;;;25.90;10.57;;;;;;;;;;5114248;28;20505;-80
2023/11/12 03:48:28;;;;;;;20.30;8.97;;;;;;;;;;5112795;28;20413;-80
2023/11/12 03:50:54;;;;;;;16.43;8.00;;;;;;;;;;5114053;28;20747;-84
2023/11/12 03:53:20;;;;;;;19.87;10.20;;;;;;;;;;5114078;28;20210;-84
2023/11/12 03:55:46;;;;;;;25.90;11.30;;;;;;;;;;5114058;28;20645;-80
2023/11/12 03:58:12;;;;;;;19.53;10.83;;;;;;;;;;5113569;28;20171;-80
2023/11/12 04:00:38;;;;;;;26.10;9.43;;;;;;;;;;5113935;28;20413;-83
2023/11/12 04:03:04;;;;;;;23.67;11.10;;;;;;;;;;5113932;28;20502;-80
2023/11/12 04:05:30;;;;;;;26.57;11.10;;;;;;;;;;5113891;28;20235;-80
2023/11/12 04:07:56;;;;;;;26.63;11.17;;;;;;;;;;5113886;28;20412;-80
2023/11/12 04:10:22;;;;;;;22.50;9.80;;;;;;;;;;5109775;28;20282;-80
2023/11/12 04:12:48;;;;;;;22.07;8.67;;;;;;;;;;5102218;28;20976;-80
2023/11/12 04:15:14;;;;;;;22.90;11.00;;;;;;;;;;5092939;28;20420;-80
2023/11/12 04:17:40;;;;;;;20.87;10.17;;;;;;;;;;5092111;28;20175;-80
2023/11/12 04:20:07;;;;;;;29.40;10.80;;;;;;;;;;5093239;28;20174;-80
2023/11/12 04:22:41;;;;;;;23.77;11.90;;;;;;;;;;5093256;28;20233;-80
2023/11/12 04:25:07;;;;;;;21.63;10.00;;;;;;;;;;5092094;28;20429;-80
2023/11/12 04:27:33;;;;;;;26.23;12.03;;;;;;;;;;5093341;28;20430;-80
2023/11/12 04:30:00;;;;;;;23.80;10.73;;;;;;;;;;5092773;28;20476;-80
2023/11/12 04:32:26;;;;;;;24.07;11.30;;;;;;;;;;5092900;28;20450;-80
2023/11/12 04:34:51;;;;;;;25.40;11.00;;;;;;;;;;5093213;28;20920;-80
2023/11/12 04:37:17;;;;;;;20.80;12.30;;;;;;;;;;5093181;28;20206;-80
2023/11/12 04:39:43;;;;;;;21.03;10.70;;;;;;;;;;5095140;28;20778;-80
2023/11/12 04:42:09;;;;;;;16.50;9.47;;;;;;;;;;5097286;28;20183;-80
2023/11/12 04:44:35;;;;;;;20.50;10.67;;;;;;;;;;5096882;28;20615;-81
2023/11/12 04:47:01;;;;;;;21.30;11.33;;;;;;;;;;5097171;28;20213;-80
2023/11/12 04:49:30;;;;;;;19.50;10.13;;;;;;;;;;5097247;28;20864;-80
2023/11/12 04:51:57;;;;;;;19.13;10.53;;;;;;;;;;5097697;28;20421;-81
2023/11/12 04:54:23;;;;;;;17.03;10.20;;;;;;;;;;5096485;28;20939;-80
2023/11/12 04:56:49;;;;;;;21.00;11.57;;;;;;;;;;5108877;28;20421;-80
2023/11/12 04:59:15;;;;;;;19.87;11.33;;;;;;;;;;5096656;28;20195;-81
2023/11/12 05:01:41;;;;;;;19.40;11.13;;;;;;;;;;5096977;28;20406;-81
2023/11/12 05:04:07;;;;;;;19.90;11.60;;;;;;;;;;5096945;28;20457;-81
2023/11/12 05:06:33;;;;;;;18.57;11.43;;;;;;;;;;5096809;28;20414;-81
2023/11/12 05:09:03;;;;;;;23.93;10.53;;;;;;;;;;5096721;28;20803;-81
2023/11/12 05:11:29;;;;;;;17.67;10.23;;;;;;;;;;5096665;28;20421;-81
2023/11/12 05:13:55;;;;;;;14.60;9.50;;;;;;;;;;5096301;28;20401;-81
2023/11/12 05:16:21;;;;;;;19.90;11.67;;;;;;;;;;5096598;28;20423;-81
2023/11/12 05:18:47;;;;;;;21.90;12.70;;;;;;;;;;5096618;28;20413;-81
2023/11/12 05:21:13;;;;;;;19.70;12.40;;;;;;;;;;5096520;28;20450;-80
2023/11/12 05:23:39;;;;;;;18.57;10.03;;;;;;;;;;5095313;28;20634;-80
2023/11/12 05:26:04;;;;;;;17.60;9.70;;;;;;;;;;5095259;28;20407;-81
2023/11/12 05:28:31;;;;;;;24.63;11.57;;;;;;;;;;5095973;28;20509;-81
2023/11/12 05:30:56;;;;;;;19.67;10.93;;;;;;;;;;5094912;28;20321;-81
2023/11/12 05:33:23;;;;;;;19.63;11.13;;;;;;;;;;5096381;28;20502;-81
2023/11/12 05:35:49;;;;;;;19.33;10.73;;;;;;;;;;5096371;28;20418;-80
2023/11/12 05:38:15;;;;;;;22.47;12.70;;;;;;;;;;5096348;28;20400;-81
2023/11/12 05:40:41;;;;;;;23.87;12.60;;;;;;;;;;5096219;28;20414;-80
2023/11/12 05:43:07;;;;;;;22.80;12.30;;;;;;;;;;5095822;28;20808;-80
2023/11/12 05:45:33;;;;;;;21.20;11.80;;;;;;;;;;5094910;28;20518;-81
2023/11/12 05:48:00;;;;;;;19.20;11.27;;;;;;;;;;5096148;28;20408;-80
2023/11/12 05:50:25;;;;;;;17.20;11.17;;;;;;;;;;5094868;28;20477;-81
2023/11/12 05:52:52;;;;;;;17.90;11.40;;;;;;;;;;5095787;28;20883;-80
2023/11/12 05:55:21;;;;;;;25.27;10.60;;;;;;;;;;5097200;28;20439;-81
2023/11/12 05:57:47;;;;;;;19.43;12.20;;;;;;;;;;5116007;28;20774;-80
2023/11/12 06:00:13;;;;;;;16.57;10.10;;;;;;;;;;5116215;27;20418;-82
2023/11/12 06:02:39;;;;;;;16.00;11.90;;;;;;;;;;5116291;28;20221;-82
2023/11/12 06:05:06;;;;;;;21.83;12.50;;;;;;;;;;5116210;28;20401;-82
2023/11/12 06:07:35;;;;;;;16.43;12.57;;;;;;;;;;5116244;28;20576;-81
2023/11/12 06:10:00;;;;;;;19.00;11.87;;;;;;;;;;5115976;27;20959;-81
2023/11/12 06:12:26;;;;;;;14.30;10.47;;;;;;;;;;5115986;28;20412;-81
2023/11/12 06:14:53;;;;;;;17.67;12.07;;;;;;;;;;5115682;28;20219;-81
2023/11/12 06:17:19;;;;;;;16.10;11.57;;;;;;;;;;5115874;27;20420;-82
2023/11/12 06:19:46;;;;;;;19.87;12.50;;;;;;;;;;5115875;28;20405;-81
2023/11/12 06:22:12;;;;;;;14.60;10.60;;;;;;;;;;5115838;28;20648;-83
2023/11/12 06:24:38;;;;;;;17.93;11.03;;;;;;;;;;5114477;28;20422;-80
2023/11/12 06:27:04;;;;;;;17.80;11.30;;;;;;;;;;5115684;27;20515;-81
2023/11/12 06:29:29;;;;;;;16.70;11.50;;;;;;;;;;5113978;28;20498;-80
2023/11/12 06:31:55;;;;;;;19.67;13.13;;;;;;;;;;5108242;28;20472;-79
2023/11/12 06:34:21;;;;;;;17.27;11.97;;;;;;;;;;5103655;28;20462;-80
2023/11/12 06:36:47;;;;;;;17.30;12.00;;;;;;;;;;5101942;28;20212;-80
2023/11/12 06:39:13;;;;;;;20.83;12.00;;;;;;;;;;5106146;27;20844;-81
2023/11/12 06:41:41;;;;;;;14.90;11.30;;;;;;;;;;5114362;28;20186;-82
2023/11/12 06:44:07;;;;;;;14.77;10.87;;;;;;;;;;5115092;28;20466;-79
2023/11/12 06:46:33;;;;;;;15.97;11.73;;;;;;;;;;5115389;28;20401;-82
2023/11/12 06:48:58;;;;;;;21.10;13.00;;;;;;;;;;5115260;28;20527;-81
2023/11/12 06:51:25;;;;;;;19.73;12.77;;;;;;;;;;5115186;28;20823;-80
2023/11/12 06:53:51;;;;;;;19.40;13.10;;;;;;;;;;5115180;28;20444;-81
2023/11/12 06:56:17;;;;;;;18.00;11.87;;;;;;;;;;5114997;28;20939;-81
2023/11/12 06:58:43;;;;;;;18.37;14.00;;;;;;;;;;5113481;28;20419;-81
2023/11/12 07:01:09;;;;;;;19.30;13.77;;;;;;;;;;5113727;28;20415;-80
2023/11/12 07:03:35;;;;;;;19.60;13.00;;;;;;;;;;5114529;28;20910;-79
2023/11/12 07:06:01;;;;;;;17.83;12.70;;;;;;;;;;5114920;28;20425;-79
2023/11/12 07:08:27;;;;;;;16.87;13.17;;;;;;;;;;5114969;28;20169;-80
2023/11/12 07:10:53;;;;;;;15.40;12.40;;;;;;;;;;5114822;28;20466;-80
2023/11/12 07:13:19;;;;;;;17.37;11.60;;;;;;;;;;5114449;28;20981;-81
2023/11/12 07:15:45;;;;;;;16.70;12.43;;;;;;;;;;5114747;28;20411;-80
2023/11/12 07:18:11;;;;;;;19.23;14.00;;;;;;;;;;5114708;28;20404;-80
2023/11/12 07:20:37;;;;;;;17.47;12.60;;;;;;;;;;5114639;28;20747;-80
2023/11/12 07:23:04;;;;;;;19.30;13.50;;;;;;;;;;5114473;28;20448;-80
2023/11/12 07:25:30;;;;;;;19.50;14.00;;;;;;;;;;5114473;28;20420;-80
2023/11/12 07:27:56;;;;;;;18.47;14.10;;;;;;;;;;5114219;28;20447;-80
2023/11/12 07:30:22;;;;;;;19.20;13.93;;;;;;;;;;5114171;28;20469;-81
2023/11/12 07:32:51;;;;;;;17.90;13.13;;;;;;;;;;5114568;28;20515;-80
2023/11/12 07:35:18;;;;;;;17.77;11.80;;;;;;;;;;5114402;28;20771;-80
2023/11/12 07:37:44;;;;;;;16.40;13.70;;;;;;;;;;5114377;28;20400;-81
2023/11/12 07:40:11;;;;;;;20.37;14.10;;;;;;;;;;5114319;28;20405;-80
2023/11/12 07:42:40;;;;;;;20.13;15.07;;;;;;;;;;5109371;27;20922;-80
2023/11/12 07:45:10;;;;;;;19.50;14.73;;;;;;;;;;5094190;28;20480;-80
2023/11/12 07:47:36;;;;;;;19.33;14.13;;;;;;;;;;5113678;28;20403;-79
2023/11/12 07:50:02;;;;;;;25.50;15.67;;;;;;;;;;5111860;28;20623;-79
2023/11/12 07:52:28;;;;;;;22.63;15.47;;;;;;;;;;5114060;28;20427;-80
2023/11/12 07:54:54;;;;;;;18.43;13.27;;;;;;;;;;5114002;28;20425;-79
2023/11/12 07:57:20;;;;;;;24.00;16.17;;;;;;;;;;5113817;28;20404;-81
2023/11/12 07:59:47;;;;;;;17.83;14.07;;;;;;;;;;5113746;28;20934;-81
2023/11/12 08:02:13;;;;;;;20.67;13.67;;;;;;;;;;5113865;28;20416;-81
2023/11/12 08:04:39;;;;;;;19.60;14.37;;;;;;;;;;5112651;28;20429;-79
2023/11/12 08:07:05;;;;;;;18.83;13.63;;;;;;;;;;5113836;28;20204;-80
2023/11/12 08:09:31;;;;;;;20.80;15.07;;;;;;;;;;5113812;28;20999;-80
2023/11/12 08:11:57;;;;;;;18.10;12.93;;;;;;;;;;5113689;28;20408;-80
2023/11/12 08:14:26;;;;;;;22.00;16.93;;;;;;;;;;5112560;28;20179;-80
2023/11/12 08:16:52;;;;;;;18.73;14.03;;;;;;;;;;5113724;28;20409;-78
2023/11/12 08:19:18;;;;;;;22.13;14.87;;;;;;;;;;5113473;28;20438;-80
2023/11/12 08:21:44;;;;;;;21.37;14.00;;;;;;;;;;5111677;28;20501;-80
2023/11/12 08:24:10;;;;;;;20.60;14.97;;;;;;;;;;5113378;28;20172;-80
2023/11/12 08:26:39;;;;;;;18.07;14.37;;;;;;;;;;5111593;28;20415;-78
2023/11/12 08:29:06;;;;;;;16.37;12.37;;;;;;;;;;5113062;28;20466;-79
2023/11/12 08:31:33;;;;;;;21.70;15.13;;;;;;;;;;5113335;28;20473;-81
2023/11/12 08:33:59;;;;;;;18.03;12.73;;;;;;;;;;5113636;28;20408;-86
2023/11/12 08:36:25;;;;;;;16.73;11.70;;;;;;;;;;5113394;28;20412;-79
2023/11/12 08:38:51;;;;;;;18.00;12.67;;;;;;;;;;5112154;28;20570;-77
2023/11/12 08:41:17;;;;;;;18.03;12.27;;;;;;;;;;5107925;28;20217;-80
2023/11/12 08:43:45;;;;;;;17.90;12.80;;;;;;;;;;5092612;28;20506;-82
2023/11/12 08:46:13;;;;;;;16.10;11.73;;;;;;;;;;5093031;28;20853;-78
2023/11/12 08:48:42;;;;;;;17.07;11.27;;;;;;;;;;5100670;28;20434;-77
2023/11/12 08:51:12;;;;;;;15.93;12.30;;;;;;;;;;5099501;28;20810;-82
2023/11/12 08:53:39;;;;;;;16.10;12.20;;;;;;;;;;5113379;28;20401;-84
2023/11/12 08:56:05;;;;;;;13.87;10.40;;;;;;;;;;5113306;28;20430;-77
2023/11/12 08:58:31;;;;;;;17.20;11.77;;;;;;;;;;5112359;28;20413;-79
2023/11/12 09:00:57;;;;;;;14.57;11.17;;;;;;;;;;5092635;28;20430;-84
2023/11/12 09:03:23;;;;;;;14.07;10.17;;;;;;;;;;5092737;28;20531;-78
2023/11/12 09:05:49;;;;;;;17.40;11.50;;;;;;;;;;5092842;28;20414;-78
2023/11/12 09:08:15;;;;;;;21.27;13.73;;;;;;;;;;5092648;28;20417;-84
2023/11/12 09:10:42;;;;;;;16.63;11.17;;;;;;;;;;5092792;28;20468;-83
2023/11/12 09:13:09;;;;;;;17.03;11.10;;;;;;;;;;5092430;28;20403;-83
2023/11/12 09:15:36;;;;;;;15.87;10.03;;;;;;;;;;5092447;28;20924;-84
2023/11/12 09:18:02;;;;;;;17.73;10.20;;;;;;;;;;5092551;28;20513;-77
2023/11/12 09:20:28;;;;;;;18.23;10.60;;;;;;;;;;5092518;28;20504;-77
2023/11/12 09:22:54;;;;;;;16.63;11.70;;;;;;;;;;5091805;28;20468;-84
2023/11/12 09:25:20;;;;;;;18.40;10.07;;;;;;;;;;5094020;28;20413;-78
2023/11/12 09:27:46;;;;;;;14.73;10.07;;;;;;;;;;5096064;28;20403;-76
2023/11/12 09:30:12;;;;;;;17.63;11.17;;;;;;;;;;5096360;28;20987;-84
2023/11/12 09:32:38;;;;;;;18.03;11.13;;;;;;;;;;5096485;28;20788;-77
2023/11/12 09:35:06;;;;;;;17.97;11.77;;;;;;;;;;5096349;28;20804;-84
2023/11/12 09:37:32;;;;;;;16.90;11.93;;;;;;;;;;5096305;28;20410;-77
2023/11/12 09:39:58;;;;;;;15.00;10.80;;;;;;;;;;5097027;28;20509;-83
2023/11/12 09:42:27;;;;;;;17.03;11.00;;;;;;;;;;5096356;28;20412;-77
2023/11/12 09:44:56;;;;;;;17.03;11.30;;;;;;;;;;5097728;28;20575;-77
2023/11/12 09:47:34;;;;;;;18.90;11.80;;;;;;;;;;5096087;28;20403;-78
2023/11/12 09:50:02;;;;;;;16.70;12.40;;;;;;;;;;5094715;28;20996;-77
2023/11/12 09:52:28;;;;;;;14.73;10.80;;;;;;;;;;5095893;28;20407;-81
2023/11/12 09:54:55;;;;;;;14.87;11.27;;;;;;;;;;5095971;28;20460;-77
2023/11/12 09:57:21;;;;;;;18.57;10.93;;;;;;;;;;5095510;28;20430;-77
2023/11/12 09:59:47;;;;;;;17.60;11.57;;;;;;;;;;5095890;28;20423;-77
2023/11/12 10:02:13;;;;;;;16.87;12.43;;;;;;;;;;5096237;28;20503;-78
2023/11/12 10:04:42;;;;;;;19.67;12.53;;;;;;;;;;5109357;28;20518;-77
2023/11/12 10:07:09;;;;;;;15.10;11.33;;;;;;;;;;5094527;28;20422;-77
2023/11/12 10:09:36;;;;;;;17.70;9.50;;;;;;;;;;5102984;28;20519;-84
2023/11/12 10:12:03;;;;;;;15.07;11.60;;;;;;;;;;5115202;28;20431;-77
2023/11/12 10:14:29;;;;;;;17.33;10.80;;;;;;;;;;5115912;28;20881;-76
2023/11/12 10:17:05;;;;;;;14.27;10.50;;;;;;;;;;5115898;28;20424;-78
2023/11/12 10:19:32;;;;;;;14.17;11.00;;;;;;;;;;5115809;27;20406;-81
2023/11/12 10:21:59;;;;;;;11.20;8.63;;;;;;;;;;5109006;28;20425;-84
2023/11/12 10:24:29;;;;;;;13.37;10.30;;;;;;;;;;5095286;28;20410;-78
2023/11/12 10:26:57;;;;;;;16.80;10.83;;;;;;;;;;5095093;28;20776;-79
2023/11/12 10:29:23;;;;;;;13.20;8.53;;;;;;;;;;5095309;28;20475;-83
2023/11/12 10:31:50;;;;;;;14.70;9.93;;;;;;;;;;5095190;28;20463;-77
2023/11/12 10:34:19;;;;;;;13.13;9.60;;;;;;;;;;5095281;28;20456;-79
2023/11/12 10:37:14;;;;;;;13.30;9.07;;;;;;;;;;5094452;28;20411;-78
2023/11/12 10:39:41;;;;;;;15.27;9.00;;;;;;;;;;5093512;28;20419;-78
2023/11/12 10:42:24;;;;;;;14.63;10.50;;;;;;;;;;5094715;28;20545;-83
2023/11/12 10:44:51;;;;;;;19.27;11.83;;;;;;;;;;5095135;28;20771;-83
2023/11/12 10:47:18;;;;;;;16.73;11.63;;;;;;;;;;5094914;28;20404;-81
2023/11/12 10:49:45;;;;;;;16.27;10.70;;;;;;;;;;5094795;28;20460;-78
2023/11/12 10:52:12;;;;;;;16.73;11.67;;;;;;;;;;5093528;28;20467;-79
2023/11/12 10:54:38;;;;;;;16.80;11.33;;;;;;;;;;5094781;28;20412;-79
2023/11/12 10:57:04;;;;;;;13.20;9.93;;;;;;;;;;5094466;28;20403;-77
2023/11/12 10:59:31;;;;;;;15.80;10.60;;;;;;;;;;5094586;28;20430;-79
2023/11/12 11:02:01;;;;;;;15.23;11.67;;;;;;;;;;5094559;28;20418;-77
2023/11/12 11:04:27;;;;;;;17.70;12.80;;;;;;;;;;5094637;28;20421;-83
2023/11/12 11:06:53;;;;;;;18.23;12.90;;;;;;;;;;5094603;28;20460;-78
2023/11/12 11:09:20;;;;;;;15.70;10.70;;;;;;;;;;5094467;28;20477;-83
2023/11/12 11:11:49;;;;;;;20.23;12.80;;;;;;;;;;5094551;28;20228;-83
2023/11/12 11:14:32;;;;;;;18.60;11.33;;;;;;;;;;5094425;28;20415;-83
2023/11/12 11:16:58;;;;;;;13.63;10.17;;;;;;;;;;5094485;28;20402;-77
2023/11/12 11:19:48;;;;;;;14.90;11.10;;;;;;;;;;5094346;28;20434;-83
2023/11/12 11:22:33;;;;;;;15.20;11.03;;;;;;;;;;5110158;28;20417;-83
2023/11/12 11:24:59;;;;;;;16.03;13.03;;;;;;;;;;5103281;28;20508;-79
2023/11/12 11:27:26;;;;;;;16.43;11.17;;;;;;;;;;5103404;28;20414;-79
2023/11/12 11:30:12;;;;;;;17.67;11.60;;;;;;;;;;5104457;28;20526;-82
2023/11/12 11:32:59;;;;;;;17.37;11.67;;;;;;;;;;5102763;28;20419;-78
2023/11/12 11:35:26;;;;;;;19.03;12.67;;;;;;;;;;5103527;28;20494;-81
2023/11/12 11:38:08;;;;;;;15.73;12.50;;;;;;;;;;5102310;28;20409;-79
2023/11/12 11:40:35;;;;;;;17.50;11.67;;;;;;;;;;5102353;28;20803;-83
2023/11/12 11:43:25;;;;;;;12.90;10.23;;;;;;;;;;5104056;28;20457;-79
2023/11/12 11:46:07;;;;;;;14.23;10.67;;;;;;;;;;5104168;28;20443;-83
2023/11/12 11:48:33;;;;;;;15.47;9.97;;;;;;;;;;5102987;28;20404;-78
2023/11/12 11:50:59;;;;;;;15.50;11.50;;;;;;;;;;5102457;28;20473;-79
2023/11/12 11:53:28;;;;;;;14.40;10.80;;;;;;;;;;5103222;28;20430;-79
2023/11/12 11:56:06;;;;;;;17.27;11.50;;;;;;;;;;5104101;28;20419;-78
2023/11/12 11:58:45;;;;;;;16.93;12.10;;;;;;;;;;5103870;28;20409;-78
2023/11/12 12:01:12;;;;;;;21.03;11.77;;;;;;;;;;5104113;28;20491;-82
2023/11/12 12:03:38;;;;;;;17.80;12.47;;;;;;;;;;5100965;28;20414;-78
2023/11/12 12:06:16;;;;;;;15.23;10.63;;;;;;;;;;5103221;28;20427;-81
2023/11/12 12:08:50;;;;;;;20.00;12.80;;;;;;;;;;5102670;28;20407;-80
2023/11/12 12:11:22;;;;;;;17.13;12.50;;;;;;;;;;5101702;28;20427;-82
2023/11/12 12:13:58;;;;;;;19.93;15.10;;;;;;;;;;5110234;28;20435;-77
2023/11/12 12:16:31;;;;;;;17.80;11.70;;;;;;;;;;5113660;28;20420;-78
2023/11/12 12:18:57;;;;;;;21.03;12.77;;;;;;;;;;5113563;28;20418;-78
2023/11/12 12:21:24;;;;;;;17.93;12.60;;;;;;;;;;5113538;28;20418;-80
2023/11/12 12:23:52;;;;;;;18.17;12.33;;;;;;;;;;5113412;28;20446;-79
2023/11/12 12:26:21;;;;;;;17.97;14.20;;;;;;;;;;5113373;28;20790;-82
2023/11/12 12:28:47;;;;;;;17.87;12.57;;;;;;;;;;5113036;28;20413;-82
2023/11/12 12:31:13;;;;;;;17.23;12.93;;;;;;;;;;5113179;28;20471;-79
2023/11/12 12:33:39;;;;;;;17.43;12.10;;;;;;;;;;5113397;28;20411;-78
2023/11/12 12:36:13;;;;;;;17.40;11.40;;;;;;;;;;5105057;28;20967;-80
2023/11/12 12:38:58;;;;;;;18.50;13.27;;;;;;;;;;5105550;28;20407;-77
2023/11/12 12:41:24;;;;;;;20.53;13.90;;;;;;;;;;5106103;28;20405;-77
2023/11/12 12:43:51;;;;;;;20.33;13.07;;;;;;;;;;5091995;28;20453;-78
2023/11/12 12:46:17;;;;;;;15.67;12.17;;;;;;;;;;5091295;28;20409;-77
2023/11/12 12:48:53;;;;;;;18.10;12.00;;;;;;;;;;5091674;28;20958;-80
2023/11/12 12:51:19;;;;;;;14.20;12.33;;;;;;;;;;5092884;28;20447;-79
2023/11/12 12:53:46;;;;;;;16.00;11.40;;;;;;;;;;5092939;28;20416;-78
2023/11/12 12:56:14;;;;;;;16.27;12.07;;;;;;;;;;5094225;28;20432;-78
2023/11/12 12:58:40;;;;;;;15.20;10.53;;;;;;;;;;5112824;28;20497;-80
2023/11/12 13:01:10;;;;;;;15.57;10.30;;;;;;;;;;5110106;28;20455;-84
2023/11/12 13:03:39;;;;;;;16.17;11.77;;;;;;;;;;5116571;28;20415;-78
2023/11/12 13:06:10;;;;;;;16.40;11.57;;;;;;;;;;5116957;28;20495;-78
2023/11/12 13:08:36;;;;;;;14.40;10.43;;;;;;;;;;5100373;28;20420;-83
2023/11/12 13:11:02;;;;;;;15.80;10.97;;;;;;;;;;5096689;28;20466;-78
2023/11/12 13:13:30;;;;;;;12.00;8.93;;;;;;;;;;5096280;28;20408;-77
2023/11/12 13:15:56;;;;;;;16.17;10.87;;;;;;;;;;5096544;28;20523;-77
2023/11/12 13:18:22;;;;;;;13.60;10.00;;;;;;;;;;5096614;28;20880;-83
2023/11/12 13:20:51;;;;;;;16.50;11.27;;;;;;;;;;5101742;28;20584;-84
2023/11/12 13:23:19;;;;;;;15.10;11.03;;;;;;;;;;5114969;28;20935;-84
2023/11/12 13:25:48;;;;;;;18.27;9.83;;;;;;;;;;5096580;28;20824;-83
2023/11/12 13:28:16;;;;;;;14.97;10.80;;;;;;;;;;5096148;28;20930;-81
2023/11/12 13:30:42;;;;;;;13.40;9.70;;;;;;;;;;5096102;28;20475;-79
2023/11/12 13:33:09;;;;;;;14.50;10.67;;;;;;;;;;5096266;28;20440;-79
2023/11/12 13:35:35;;;;;;;18.43;10.40;;;;;;;;;;5096216;28;20438;-77
2023/11/12 13:38:01;;;;;;;21.97;11.00;;;;;;;;;;5094860;28;20769;-78
2023/11/12 13:40:30;;;;;;;15.10;10.57;;;;;;;;;;5096127;28;20420;-81
2023/11/12 13:42:56;;;;;;;14.03;10.10;;;;;;;;;;5095799;28;20434;-79
2023/11/12 13:45:22;;;;;;;13.97;9.17;;;;;;;;;;5095938;28;20449;-82
2023/11/12 13:47:48;;;;;;;11.80;6.20;;;;;;;;;;5096029;28;20536;-78
2023/11/12 13:50:14;;;;;;;10.03;7.90;;;;;;;;;;5096646;28;20471;-80
2023/11/12 13:52:42;;;;;;;7.97;6.23;;;;;;;;;;5111436;28;20411;-77
2023/11/12 13:55:11;;;;;;;11.80;7.30;;;;;;;;;;5107337;28;20846;-79
2023/11/12 13:57:37;;;;;;;10.27;8.03;;;;;;;;;;5104412;28;20402;-75
2023/11/12 14:00:10;;;;;;;12.33;8.20;;;;;;;;;;5104589;28;20416;-81
2023/11/12 14:02:37;;;;;;;12.10;7.97;;;;;;;;;;5110883;28;20497;-76
2023/11/12 14:05:08;;;;;;;13.60;10.07;;;;;;;;;;5116067;28;20548;-76
2023/11/12 14:07:35;;;;;;;11.80;7.67;;;;;;;;;;5114696;28;20508;-80
2023/11/12 14:10:03;;;;;;;12.77;8.13;;;;;;;;;;5115412;28;20462;-81
2023/11/12 14:12:32;;;;;;;11.20;8.20;;;;;;;;;;5114281;27;20418;-77
2023/11/12 14:15:00;;;;;;;10.70;8.70;;;;;;;;;;5115939;28;20425;-78
2023/11/12 14:17:27;;;;;;;12.20;8.03;;;;;;;;;;5113866;28;20449;-76
2023/11/12 14:19:55;;;;;;;14.60;7.90;;;;;;;;;;5114454;28;20411;-76
2023/11/12 14:22:21;;;;;;;12.10;8.17;;;;;;;;;;5115186;28;20475;-76